Reedsport, OR

1:57 AM PDT on August 30, 2015 (GMT -0700)
APRSWXNET | | Change Station
CLOSE
Current Station
Personal Weather Station
Location: Gardiner, OR
Elevation: 0 ft
Nearby Weather Stations

Elev 0 ft 43.71 °N, 124.09 °W | Updated 26 minutes ago

Overcast
Overcast
61 °F
Feels Like 61 °F
N
0
Wind Variable Wind from South
Gusts 7.0 mph

Today
High -- | Low -- °F
--% Chance of Precip.
Yesterday
High -- | Low -- °F
Precip. -- in
6:37 AM 7:55 PM
Waxing Gibbous, 99% visible
Pressure 29.93 in
Visibility 4.0 miles
Clouds Few 2200 ft
Scattered Clouds 3000 ft
Mostly Cloudy 4300 ft
Dew Point 59 °F
Humidity 94%
Rainfall in
Snow Depth Not available.
UV 0 out of 12
Pollen .30 out of 12
Air Quality Not available.
Flu Activity Not available.
METAR KOTH 300855Z 21010G14KT 4SM FEW022 SCT030 BKN043 16/16 A2993 RMK AO1 52007
Pressure 29.93 in
Visibility 4.0 miles
Clouds Few 2200 ft
Scattered Clouds 3000 ft
Mostly Cloudy 4300 ft
Dew Point 59 °F
Humidity 94%
Rainfall in
Snow Depth Not available.
UV 0 out of 12
Pollen .30 out of 12
Air Quality Not available.
Flu Activity Not available.
METAR KOTH 300855Z 21010G14KT 4SM FEW022 SCT030 BKN043 16/16 A2993 RMK AO1 52007

10-Day Weather Forecast

×

Almanac

Astronomy

Aug. 30, 2015 Rise Set
Actual Time
Civil Twilight
Nautical Twilight
Astronomical Twilight
Moon
Length of Visible Light
Length of Day
Tomorrow will be .
, % of the Moon is Illuminated

Today's Extremes

State Highs State Lows

Community

WunderPhotos

Upload Photos

1,850,909 photos uploaded!

WunderBlogs® & News

Nearby

Air Quality

  Air Quality AQ Index Pollutant
Not available.

Snow Depth

Station Depth Elevation

Earthquake Activity

City Distance Mag. Time & Date
Minimum magnitude displayed is 2.5.

Coastal Water Temperatures

Place Temperature

Stations

Nearby Weather Stations

Station Location Temp. Windchill Dew Point Humidity Wind Precip. Elev Updated Type